createdAt,value
2018-08-10T00:06:23.017Z,18.4
2018-08-10T00:16:38.978Z,18.2
2018-08-10T00:27:24.866Z,17.9
2018-08-10T00:38:11.056Z,17.8
2018-08-10T00:48:24.945Z,17.8
2018-08-10T00:58:41.168Z,17.6
2018-08-10T01:08:55.411Z,17.4
2018-08-10T01:19:41.027Z,17.1
2018-08-10T01:30:26.802Z,17.0
2018-08-10T01:40:38.164Z,17.0
2018-08-10T01:50:53.198Z,16.9
2018-08-10T02:01:07.789Z,16.7
2018-08-10T02:11:52.995Z,16.4
2018-08-10T02:22:06.502Z,16.4
2018-08-10T02:32:21.177Z,16.3
2018-08-10T02:42:34.967Z,16.2
2018-08-10T02:52:46.113Z,16.1
2018-08-10T03:03:00.785Z,16.0
2018-08-10T03:13:46.021Z,15.9
2018-08-10T03:24:31.782Z,15.8
2018-08-10T03:45:02.023Z,15.7
2018-08-10T03:55:20.051Z,15.6
2018-08-10T04:05:34.035Z,15.5
2018-08-10T04:15:48.768Z,15.3
2018-08-10T04:26:02.588Z,15.2
2018-08-10T04:36:17.054Z,15.0
2018-08-10T04:47:02.364Z,14.7
2018-08-10T04:57:13.697Z,14.7
2018-08-10T05:08:02.232Z,14.5
2018-08-10T05:18:16.884Z,14.5
2018-08-10T05:28:31.267Z,14.5
2018-08-10T05:39:16.453Z,14.4
2018-08-10T05:49:32.069Z,14.4
2018-08-10T05:59:44.270Z,14.4
2018-08-10T06:09:55.369Z,14.5
2018-08-10T06:20:07.015Z,14.6
2018-08-10T06:30:21.128Z,14.7
2018-08-10T06:40:35.271Z,14.8
2018-08-10T06:50:49.509Z,15.0
2018-08-10T07:01:04.161Z,15.1
2018-08-10T07:11:49.835Z,15.6
2018-08-10T07:22:37.355Z,15.9
2018-08-10T07:32:50.687Z,15.9
2018-08-10T07:43:05.152Z,16.3
2018-08-10T07:53:51.694Z,19.7
2018-08-10T08:04:07.152Z,19.7
2018-08-10T08:14:21.261Z,21.4
2018-08-10T08:24:36.233Z,22.6
2018-08-10T08:34:50.674Z,24.1
2018-08-10T08:45:41.746Z,26.8
2018-08-10T08:55:53.441Z,26.8
2018-08-10T09:06:07.816Z,27.7
2018-08-10T09:17:12.540Z,28.9
2018-08-10T09:27:24.949Z,28.9
2018-08-10T09:37:40.106Z,29.5
2018-08-10T09:47:54.509Z,29.9
2018-08-10T09:58:09.089Z,30.0
2018-08-10T10:08:22.116Z,29.8
2018-08-10T10:18:36.269Z,30.0
2018-08-10T10:28:49.752Z,30.1
2018-08-10T10:39:09.979Z,30.0
2018-08-10T10:49:55.987Z,29.5
2018-08-10T11:00:08.436Z,29.5
2018-08-10T11:10:54.040Z,29.0
2018-08-10T11:21:39.403Z,29.7
2018-08-10T11:31:54.877Z,29.8
2018-08-10T11:42:40.332Z,31.0
2018-08-10T11:52:55.886Z,31.0
2018-08-10T12:03:08.373Z,31.2
2018-08-10T12:13:23.820Z,31.0
2018-08-10T12:24:08.895Z,29.8
2018-08-10T12:34:23.559Z,29.8
2018-08-10T12:44:37.466Z,29.5
2018-08-10T12:54:52.248Z,29.0
2018-08-10T13:05:06.264Z,28.7
2018-08-10T13:15:20.374Z,28.5
2018-08-10T13:25:34.747Z,28.4
2018-08-10T13:35:49.472Z,28.4
2018-08-10T13:46:03.771Z,28.0
2018-08-10T13:56:19.568Z,27.6
2018-08-10T14:06:33.251Z,27.5
2018-08-10T14:16:57.987Z,27.7
2018-08-10T14:27:11.503Z,27.9
2018-08-10T14:37:57.473Z,28.3
2018-08-10T14:48:42.836Z,28.3
2018-08-10T14:59:27.738Z,28.0
2018-08-10T15:10:14.409Z,27.7
2018-08-10T15:20:28.308Z,27.7
2018-08-10T15:30:42.053Z,27.3
2018-08-10T15:40:53.625Z,26.9
2018-08-10T15:51:38.940Z,26.2
2018-08-10T16:02:25.035Z,25.8
2018-08-10T16:13:10.334Z,25.4
2018-08-10T16:23:57.925Z,25.1
2018-08-10T16:34:11.337Z,25.1
2018-08-10T16:44:25.959Z,24.8
2018-08-10T16:54:44.746Z,24.5
2018-08-10T17:15:27.560Z,24.1
2018-08-10T17:37:38.826Z,23.7
2018-08-10T17:47:53.238Z,23.7
2018-08-10T17:58:07.570Z,23.5
2018-08-10T18:08:21.801Z,23.4
2018-08-10T18:18:40.547Z,23.2
2018-08-10T18:31:19.477Z,22.6
2018-08-10T18:42:04.857Z,22.3
2018-08-10T18:52:21.341Z,22.3
2018-08-10T19:02:36.670Z,21.9
2018-08-10T19:12:48.659Z,21.5
2018-08-10T19:23:03.431Z,21.2
2018-08-10T19:33:17.215Z,20.8
2018-08-10T19:44:06.117Z,20.2
2018-08-10T19:54:19.781Z,20.1
2018-08-10T20:04:35.384Z,19.9
2018-08-10T20:14:49.586Z,19.8
2018-08-10T20:25:03.768Z,19.6
2018-08-10T20:35:17.830Z,19.5
2018-08-10T20:45:37.604Z,19.3
2018-08-10T20:55:51.168Z,19.3
2018-08-10T21:06:02.469Z,19.3
2018-08-10T21:16:13.900Z,19.2
2018-08-10T21:26:28.241Z,19.2
2018-08-10T21:36:40.805Z,19.2
2018-08-10T21:46:54.273Z,19.2
2018-08-10T21:57:08.453Z,19.2
2018-08-10T22:07:23.304Z,19.2
2018-08-10T22:17:37.392Z,19.1
2018-08-10T22:28:22.857Z,19.1
2018-08-10T22:39:08.582Z,19.1
2018-08-10T22:49:20.225Z,19.1
2018-08-10T23:00:11.246Z,19.0
2018-08-10T23:10:25.336Z,19.0
2018-08-10T23:20:37.180Z,18.9
2018-08-10T23:30:52.367Z,18.9
2018-08-10T23:41:38.006Z,18.8
2018-08-10T23:52:23.623Z,18.8
